Time;durP1;ratioP1;P1;durP2;ratioP2;P2;SDS_P1;SDS_P2;PMS_P1;PMS_P2;Temp;Humidity;BMP_temperature;BMP_pressure;BME280_temperature;BME280_humidity;BME280_pressure;Samples;Min_cycle;Max_cycle;Signal;HPM_P1;HPM_P2
2022/12/16 00:00:39;;;;;;;212.23;78.03;;;;;;;;;;6626212;28;20175;-82
2022/12/16 00:03:51;;;;;;;198.23;75.63;;;;;;;;;;6626048;28;20211;-82
2022/12/16 00:07:01;;;;;;;226.87;78.00;;;;;;;;;;6626864;28;20167;-82
2022/12/16 00:10:12;;;;;;;279.23;97.87;;;;;;;;;;6626066;28;20172;-82
2022/12/16 00:13:22;;;;;;;252.63;87.30;;;;;;;;;;6627530;28;20629;-82
2022/12/16 00:16:32;;;;;;;246.37;84.40;;;;;;;;;;6626201;28;20179;-82
2022/12/16 00:19:43;;;;;;;245.27;86.57;;;;;;;;;;6626945;28;20604;-82
2022/12/16 00:22:54;;;;;;;228.60;80.77;;;;;;;;;;6626050;28;20195;-82
2022/12/16 00:26:04;;;;;;;147.47;57.33;;;;;;;;;;6625736;28;20183;-82
2022/12/16 00:29:15;;;;;;;171.47;64.30;;;;;;;;;;6627095;28;20171;-82
2022/12/16 00:32:25;;;;;;;142.30;53.43;;;;;;;;;;6626964;28;20259;-82
2022/12/16 00:35:35;;;;;;;139.90;56.50;;;;;;;;;;6625890;28;20167;-82
2022/12/16 00:38:46;;;;;;;122.33;49.67;;;;;;;;;;6625406;28;20176;-82
2022/12/16 00:41:56;;;;;;;110.63;49.47;;;;;;;;;;6625237;28;20716;-82
2022/12/16 00:45:06;;;;;;;113.73;46.83;;;;;;;;;;6626322;28;20171;-82
2022/12/16 00:48:17;;;;;;;85.77;38.90;;;;;;;;;;6625499;28;20176;-82
2022/12/16 00:51:27;;;;;;;81.00;34.73;;;;;;;;;;6625228;28;20265;-82
2022/12/16 00:54:37;;;;;;;82.20;37.83;;;;;;;;;;6625353;28;20179;-82
2022/12/16 00:57:48;;;;;;;101.90;44.90;;;;;;;;;;6625281;28;20271;-82
2022/12/16 01:00:58;;;;;;;82.83;34.77;;;;;;;;;;6625030;28;20203;-82
2022/12/16 01:04:09;;;;;;;96.20;44.70;;;;;;;;;;6625304;28;20673;-82
2022/12/16 01:07:19;;;;;;;74.93;33.37;;;;;;;;;;6624654;28;20198;-82
2022/12/16 01:10:29;;;;;;;75.63;32.43;;;;;;;;;;6624958;28;20203;-82
2022/12/16 01:13:39;;;;;;;107.80;45.37;;;;;;;;;;6625977;28;20685;-82
2022/12/16 01:16:50;;;;;;;94.70;41.33;;;;;;;;;;6625216;28;20194;-82
2022/12/16 01:20:01;;;;;;;80.93;37.17;;;;;;;;;;6624797;28;20541;-82
2022/12/16 01:23:11;;;;;;;80.50;35.53;;;;;;;;;;6624610;28;20199;-82
2022/12/16 01:26:21;;;;;;;78.77;36.07;;;;;;;;;;6625292;28;20180;-82
2022/12/16 01:29:32;;;;;;;76.63;35.53;;;;;;;;;;6624500;28;20229;-82
2022/12/16 01:32:42;;;;;;;79.73;37.13;;;;;;;;;;6624335;28;20266;-82
2022/12/16 01:36:04;;;;;;;66.53;33.47;;;;;;;;;;6625165;28;20266;-82
2022/12/16 01:39:14;;;;;;;90.47;39.67;;;;;;;;;;6624451;28;20183;-82
2022/12/16 01:42:29;;;;;;;68.93;33.40;;;;;;;;;;6624941;28;20290;-82
2022/12/16 01:45:39;;;;;;;81.20;40.17;;;;;;;;;;6623972;28;20183;-82
2022/12/16 01:48:51;;;;;;;83.90;38.97;;;;;;;;;;6625101;28;20168;-82
2022/12/16 01:52:03;;;;;;;65.73;30.23;;;;;;;;;;6624905;28;20232;-82
2022/12/16 01:55:20;;;;;;;55.83;26.03;;;;;;;;;;6623940;28;20259;-82
2022/12/16 01:58:33;;;;;;;74.23;33.57;;;;;;;;;;6624206;28;20172;-82
2022/12/16 02:01:43;;;;;;;45.87;23.03;;;;;;;;;;6622280;28;20219;-82
2022/12/16 02:08:23;;;;;;;43.10;21.30;;;;;;;;;;6623248;28;20252;-82
2022/12/16 02:11:42;;;;;;;51.53;25.80;;;;;;;;;;6623584;28;20175;-82
2022/12/16 02:15:02;;;;;;;44.60;24.67;;;;;;;;;;6623888;28;20202;-82
2022/12/16 02:18:21;;;;;;;37.60;19.00;;;;;;;;;;6623009;28;20196;-82
2022/12/16 02:21:34;;;;;;;48.03;25.43;;;;;;;;;;6623202;28;20198;-82
2022/12/16 02:24:44;;;;;;;43.93;23.63;;;;;;;;;;6623935;28;20513;-82
2022/12/16 02:28:01;;;;;;;36.40;19.53;;;;;;;;;;6623912;28;20211;-82
2022/12/16 02:31:18;;;;;;;48.67;23.27;;;;;;;;;;6624547;28;20529;-82
2022/12/16 02:34:47;;;;;;;50.40;24.77;;;;;;;;;;6623047;28;20171;-82
2022/12/16 02:38:07;;;;;;;48.67;24.10;;;;;;;;;;6622959;28;20179;-82
2022/12/16 02:41:23;;;;;;;36.47;17.63;;;;;;;;;;6623001;28;20196;-82
2022/12/16 02:44:54;;;;;;;51.00;25.93;;;;;;;;;;6622416;28;20270;-82
2022/12/16 02:48:04;;;;;;;50.40;25.90;;;;;;;;;;6622336;28;20549;-82
2022/12/16 02:51:15;;;;;;;40.83;22.33;;;;;;;;;;6622585;28;20224;-82
2022/12/16 02:54:26;;;;;;;60.10;29.33;;;;;;;;;;6623076;28;20172;-82
2022/12/16 02:57:39;;;;;;;38.07;21.20;;;;;;;;;;6622183;28;20192;-82
2022/12/16 03:01:08;;;;;;;54.07;28.43;;;;;;;;;;6622512;28;20171;-82
2022/12/16 03:04:21;;;;;;;37.27;18.97;;;;;;;;;;6622072;28;20225;-82
2022/12/16 03:07:32;;;;;;;53.43;27.97;;;;;;;;;;6622119;28;20262;-82
2022/12/16 03:10:46;;;;;;;44.70;22.67;;;;;;;;;;6622724;28;20176;-82
2022/12/16 03:13:59;;;;;;;54.03;28.63;;;;;;;;;;6622501;28;20179;-82
2022/12/16 03:17:09;;;;;;;46.07;24.53;;;;;;;;;;6622563;28;20647;-82
2022/12/16 03:20:29;;;;;;;40.13;19.90;;;;;;;;;;6622271;28;20171;-82
2022/12/16 03:23:45;;;;;;;89.10;40.07;;;;;;;;;;6621868;28;20733;-82
2022/12/16 03:27:02;;;;;;;69.80;35.10;;;;;;;;;;6622982;28;20175;-82
2022/12/16 03:30:15;;;;;;;77.77;37.50;;;;;;;;;;6622191;28;20168;-82
2022/12/16 03:33:28;;;;;;;109.50;49.90;;;;;;;;;;6622252;28;20222;-82
2022/12/16 03:36:40;;;;;;;97.90;45.43;;;;;;;;;;6622184;28;20176;-82
2022/12/16 03:39:52;;;;;;;101.07;42.60;;;;;;;;;;6622248;28;20259;-82
2022/12/16 03:43:03;;;;;;;144.17;56.23;;;;;;;;;;6622066;28;20282;-81
2022/12/16 03:46:14;;;;;;;96.63;45.43;;;;;;;;;;6622065;28;20179;-82
2022/12/16 03:49:25;;;;;;;106.00;48.90;;;;;;;;;;6621742;28;20673;-82
2022/12/16 03:52:35;;;;;;;84.30;41.27;;;;;;;;;;6623686;28;20250;-82
2022/12/16 03:55:45;;;;;;;90.40;42.63;;;;;;;;;;6623361;28;20643;-82
2022/12/16 03:58:56;;;;;;;88.03;39.33;;;;;;;;;;6622061;28;20172;-82
2022/12/16 04:02:06;;;;;;;95.40;43.47;;;;;;;;;;6622206;28;20222;-82
2022/12/16 04:05:16;;;;;;;76.47;36.27;;;;;;;;;;6621993;28;20174;-82
2022/12/16 04:08:27;;;;;;;96.93;45.17;;;;;;;;;;6621356;28;20171;-82
2022/12/16 04:25:57;;;;;;;72.60;32.87;;;;;;;;;;6600792;28;20559;-82
2022/12/16 04:29:08;;;;;;;113.70;50.07;;;;;;;;;;6625690;28;20168;-82
2022/12/16 04:32:18;;;;;;;132.93;62.50;;;;;;;;;;6625959;28;20183;-82
